sensor_id;sensor_type;location;lat;lon;timestamp;P1;durP1;ratioP1;P2;durP2;ratioP2
10985;SDS011;5546;48.714;8.738;2024-02-15T00:00:20;3.33;;;1.90;;
10985;SDS011;5546;48.714;8.738;2024-02-15T00:02:46;2.43;;;1.90;;
10985;SDS011;5546;48.714;8.738;2024-02-15T00:05:12;5.03;;;2.30;;
10985;SDS011;5546;48.714;8.738;2024-02-15T00:07:39;3.07;;;2.30;;
10985;SDS011;5546;48.714;8.738;2024-02-15T00:10:05;2.83;;;1.90;;
10985;SDS011;5546;48.714;8.738;2024-02-15T00:12:31;3.47;;;1.90;;
10985;SDS011;5546;48.714;8.738;2024-02-15T00:14:57;4.50;;;1.90;;
10985;SDS011;5546;48.714;8.738;2024-02-15T00:17:25;7.63;;;2.20;;
10985;SDS011;5546;48.714;8.738;2024-02-15T00:19:54;3.20;;;2.07;;
10985;SDS011;5546;48.714;8.738;2024-02-15T00:22:20;2.80;;;1.87;;
10985;SDS011;5546;48.714;8.738;2024-02-15T00:24:46;4.13;;;2.00;;
10985;SDS011;5546;48.714;8.738;2024-02-15T00:27:13;3.53;;;1.60;;
10985;SDS011;5546;48.714;8.738;2024-02-15T00:29:42;5.90;;;1.90;;
10985;SDS011;5546;48.714;8.738;2024-02-15T00:32:07;6.30;;;2.00;;
10985;SDS011;5546;48.714;8.738;2024-02-15T00:34:35;2.93;;;2.10;;
10985;SDS011;5546;48.714;8.738;2024-02-15T00:37:03;3.37;;;1.70;;
10985;SDS011;5546;48.714;8.738;2024-02-15T00:39:29;2.50;;;2.00;;
10985;SDS011;5546;48.714;8.738;2024-02-15T00:41:56;4.87;;;2.77;;
10985;SDS011;5546;48.714;8.738;2024-02-15T00:44:22;3.83;;;2.47;;
10985;SDS011;5546;48.714;8.738;2024-02-15T00:46:48;3.70;;;2.63;;
10985;SDS011;5546;48.714;8.738;2024-02-15T00:49:13;3.27;;;2.10;;
10985;SDS011;5546;48.714;8.738;2024-02-15T00:51:39;2.23;;;2.03;;
10985;SDS011;5546;48.714;8.738;2024-02-15T00:54:04;3.77;;;2.27;;
10985;SDS011;5546;48.714;8.738;2024-02-15T00:56:30;3.20;;;2.10;;
10985;SDS011;5546;48.714;8.738;2024-02-15T00:58:58;3.33;;;2.37;;
10985;SDS011;5546;48.714;8.738;2024-02-15T01:01:25;6.80;;;2.67;;
10985;SDS011;5546;48.714;8.738;2024-02-15T01:03:51;6.37;;;2.00;;
10985;SDS011;5546;48.714;8.738;2024-02-15T01:06:17;8.53;;;2.40;;
10985;SDS011;5546;48.714;8.738;2024-02-15T01:08:43;3.87;;;2.23;;
10985;SDS011;5546;48.714;8.738;2024-02-15T01:11:08;3.63;;;2.17;;
10985;SDS011;5546;48.714;8.738;2024-02-15T01:13:34;6.33;;;3.07;;
10985;SDS011;5546;48.714;8.738;2024-02-15T01:16:06;5.63;;;2.63;;
10985;SDS011;5546;48.714;8.738;2024-02-15T01:18:33;6.23;;;2.60;;
10985;SDS011;5546;48.714;8.738;2024-02-15T01:20:58;6.03;;;2.20;;
10985;SDS011;5546;48.714;8.738;2024-02-15T01:23:24;7.83;;;3.27;;
10985;SDS011;5546;48.714;8.738;2024-02-15T01:25:50;5.13;;;2.80;;
10985;SDS011;5546;48.714;8.738;2024-02-15T01:28:17;3.87;;;2.43;;
10985;SDS011;5546;48.714;8.738;2024-02-15T01:30:42;5.27;;;2.23;;
10985;SDS011;5546;48.714;8.738;2024-02-15T01:33:11;5.63;;;2.50;;
10985;SDS011;5546;48.714;8.738;2024-02-15T01:35:37;4.57;;;2.50;;
10985;SDS011;5546;48.714;8.738;2024-02-15T01:38:03;11.00;;;2.47;;
10985;SDS011;5546;48.714;8.738;2024-02-15T01:40:30;7.60;;;2.40;;
10985;SDS011;5546;48.714;8.738;2024-02-15T01:42:55;4.07;;;2.13;;
10985;SDS011;5546;48.714;8.738;2024-02-15T01:45:23;3.67;;;2.17;;
10985;SDS011;5546;48.714;8.738;2024-02-15T01:47:50;6.20;;;2.07;;
10985;SDS011;5546;48.714;8.738;2024-02-15T01:50:16;3.43;;;1.93;;
10985;SDS011;5546;48.714;8.738;2024-02-15T01:52:42;5.97;;;2.10;;
10985;SDS011;5546;48.714;8.738;2024-02-15T01:55:12;2.93;;;1.83;;
10985;SDS011;5546;48.714;8.738;2024-02-15T01:57:39;3.87;;;1.87;;
10985;SDS011;5546;48.714;8.738;2024-02-15T02:00:09;5.67;;;2.23;;
10985;SDS011;5546;48.714;8.738;2024-02-15T02:02:35;4.00;;;2.00;;
10985;SDS011;5546;48.714;8.738;2024-02-15T02:05:02;5.73;;;2.67;;
10985;SDS011;5546;48.714;8.738;2024-02-15T02:07:27;5.87;;;2.17;;
10985;SDS011;5546;48.714;8.738;2024-02-15T02:09:53;9.63;;;2.93;;
10985;SDS011;5546;48.714;8.738;2024-02-15T02:12:19;7.83;;;2.30;;
10985;SDS011;5546;48.714;8.738;2024-02-15T02:14:44;4.03;;;2.40;;
10985;SDS011;5546;48.714;8.738;2024-02-15T02:17:11;6.40;;;2.20;;
10985;SDS011;5546;48.714;8.738;2024-02-15T02:19:38;2.87;;;1.97;;
10985;SDS011;5546;48.714;8.738;2024-02-15T02:22:04;6.37;;;2.60;;
10985;SDS011;5546;48.714;8.738;2024-02-15T02:24:30;4.73;;;3.03;;
10985;SDS011;5546;48.714;8.738;2024-02-15T02:27:02;7.13;;;3.77;;
10985;SDS011;5546;48.714;8.738;2024-02-15T02:29:30;6.60;;;3.00;;
10985;SDS011;5546;48.714;8.738;2024-02-15T02:31:56;11.10;;;7.93;;
10985;SDS011;5546;48.714;8.738;2024-02-15T02:34:22;13.30;;;8.93;;
10985;SDS011;5546;48.714;8.738;2024-02-15T02:36:48;7.93;;;6.60;;
10985;SDS011;5546;48.714;8.738;2024-02-15T02:39:15;7.30;;;5.20;;
10985;SDS011;5546;48.714;8.738;2024-02-15T02:41:41;8.80;;;3.90;;
10985;SDS011;5546;48.714;8.738;2024-02-15T02:44:07;4.93;;;2.90;;
10985;SDS011;5546;48.714;8.738;2024-02-15T02:46:33;3.53;;;2.43;;
10985;SDS011;5546;48.714;8.738;2024-02-15T02:48:58;6.07;;;2.57;;
10985;SDS011;5546;48.714;8.738;2024-02-15T02:51:24;3.33;;;2.10;;
10985;SDS011;5546;48.714;8.738;2024-02-15T02:53:49;4.20;;;2.63;;
10985;SDS011;5546;48.714;8.738;2024-02-15T02:56:15;3.47;;;2.50;;
10985;SDS011;5546;48.714;8.738;2024-02-15T02:58:41;4.03;;;2.97;;
10985;SDS011;5546;48.714;8.738;2024-02-15T03:01:10;4.80;;;2.70;;
10985;SDS011;5546;48.714;8.738;2024-02-15T03:03:36;7.47;;;2.70;;
10985;SDS011;5546;48.714;8.738;2024-02-15T03:06:03;6.90;;;3.07;;
10985;SDS011;5546;48.714;8.738;2024-02-15T03:08:29;5.83;;;2.80;;
10985;SDS011;5546;48.714;8.738;2024-02-15T03:10:55;11.33;;;3.83;;
10985;SDS011;5546;48.714;8.738;2024-02-15T03:13:20;15.10;;;3.40;;
10985;SDS011;5546;48.714;8.738;2024-02-15T03:15:46;13.67;;;3.30;;
10985;SDS011;5546;48.714;8.738;2024-02-15T03:18:15;29.20;;;4.70;;
10985;SDS011;5546;48.714;8.738;2024-02-15T03:20:41;8.90;;;2.70;;
10985;SDS011;5546;48.714;8.738;2024-02-15T03:23:06;15.97;;;3.50;;
10985;SDS011;5546;48.714;8.738;2024-02-15T03:25:32;81.77;;;7.13;;
10985;SDS011;5546;48.714;8.738;2024-02-15T03:27:59;34.00;;;4.53;;
10985;SDS011;5546;48.714;8.738;2024-02-15T03:30:28;10.30;;;3.70;;
10985;SDS011;5546;48.714;8.738;2024-02-15T03:32:56;5.00;;;3.40;;
10985;SDS011;5546;48.714;8.738;2024-02-15T03:35:26;6.60;;;2.87;;
10985;SDS011;5546;48.714;8.738;2024-02-15T03:37:56;7.53;;;2.67;;
10985;SDS011;5546;48.714;8.738;2024-02-15T03:40:22;7.43;;;2.90;;
10985;SDS011;5546;48.714;8.738;2024-02-15T03:42:51;4.10;;;2.40;;
10985;SDS011;5546;48.714;8.738;2024-02-15T03:45:17;6.30;;;3.27;;
10985;SDS011;5546;48.714;8.738;2024-02-15T03:47:42;7.40;;;3.70;;
10985;SDS011;5546;48.714;8.738;2024-02-15T03:50:08;5.80;;;3.27;;
10985;SDS011;5546;48.714;8.738;2024-02-15T03:52:37;11.17;;;3.37;;
10985;SDS011;5546;48.714;8.738;2024-02-15T03:55:03;6.43;;;3.43;;
10985;SDS011;5546;48.714;8.738;2024-02-15T03:57:29;7.60;;;3.20;;
10985;SDS011;5546;48.714;8.738;2024-02-15T03:59:55;8.97;;;3.27;;
10985;SDS011;5546;48.714;8.738;2024-02-15T04:02:22;5.50;;;3.47;;
10985;SDS011;5546;48.714;8.738;2024-02-15T04:04:51;9.37;;;4.00;;
10985;SDS011;5546;48.714;8.738;2024-02-15T04:07:19;18.33;;;4.23;;
10985;SDS011;5546;48.714;8.738;2024-02-15T04:09:45;18.33;;;4.40;;
10985;SDS011;5546;48.714;8.738;2024-02-15T04:12:11;7.13;;;3.87;;
10985;SDS011;5546;48.714;8.738;2024-02-15T04:14:37;7.70;;;3.60;;
10985;SDS011;5546;48.714;8.738;2024-02-15T04:17:06;9.07;;;3.50;;
10985;SDS011;5546;48.714;8.738;2024-02-15T04:19:32;8.10;;;3.90;;
10985;SDS011;5546;48.714;8.738;2024-02-15T04:21:58;10.63;;;3.73;;
10985;SDS011;5546;48.714;8.738;2024-02-15T04:24:25;6.90;;;3.53;;
10985;SDS011;5546;48.714;8.738;2024-02-15T04:26:51;7.77;;;3.73;;
10985;SDS011;5546;48.714;8.738;2024-02-15T04:29:17;7.20;;;3.00;;
10985;SDS011;5546;48.714;8.738;2024-02-15T04:31:46;8.07;;;3.63;;
10985;SDS011;5546;48.714;8.738;2024-02-15T04:34:17;5.90;;;3.00;;
10985;SDS011;5546;48.714;8.738;2024-02-15T04:36:46;4.63;;;3.00;;
10985;SDS011;5546;48.714;8.738;2024-02-15T04:39:16;3.40;;;2.67;;
10985;SDS011;5546;48.714;8.738;2024-02-15T04:41:49;5.27;;;2.70;;
10985;SDS011;5546;48.714;8.738;2024-02-15T04:44:16;3.40;;;2.57;;
10985;SDS011;5546;48.714;8.738;2024-02-15T04:46:45;3.13;;;2.60;;
10985;SDS011;5546;48.714;8.738;2024-02-15T04:49:14;2.93;;;2.47;;
10985;SDS011;5546;48.714;8.738;2024-02-15T04:51:40;6.43;;;2.70;;
10985;SDS011;5546;48.714;8.738;2024-02-15T04:54:09;3.00;;;2.60;;
10985;SDS011;5546;48.714;8.738;2024-02-15T04:56:39;4.00;;;2.30;;
10985;SDS011;5546;48.714;8.738;2024-02-15T04:59:07;4.90;;;2.90;;
10985;SDS011;5546;48.714;8.738;2024-02-15T05:01:36;3.23;;;2.60;;
10985;SDS011;5546;48.714;8.738;2024-02-15T05:04:02;3.43;;;2.80;;
10985;SDS011;5546;48.714;8.738;2024-02-15T05:06:32;7.03;;;3.00;;
10985;SDS011;5546;48.714;8.738;2024-02-15T05:08:58;14.40;;;2.77;;
10985;SDS011;5546;48.714;8.738;2024-02-15T05:11:32;5.70;;;2.87;;
10985;SDS011;5546;48.714;8.738;2024-02-15T05:14:00;3.53;;;2.57;;
10985;SDS011;5546;48.714;8.738;2024-02-15T05:16:26;5.13;;;3.00;;
10985;SDS011;5546;48.714;8.738;2024-02-15T05:18:52;3.80;;;2.87;;
10985;SDS011;5546;48.714;8.738;2024-02-15T05:21:18;3.67;;;2.30;;
10985;SDS011;5546;48.714;8.738;2024-02-15T05:23:44;4.33;;;2.20;;
10985;SDS011;5546;48.714;8.738;2024-02-15T05:26:11;6.07;;;2.53;;
10985;SDS011;5546;48.714;8.738;2024-02-15T05:28:41;4.40;;;2.50;;
10985;SDS011;5546;48.714;8.738;2024-02-15T05:33:34;5.77;;;2.70;;
10985;SDS011;5546;48.714;8.738;2024-02-15T05:36:01;7.20;;;3.07;;
10985;SDS011;5546;48.714;8.738;2024-02-15T05:38:27;4.00;;;2.53;;
10985;SDS011;5546;48.714;8.738;2024-02-15T05:40:54;4.23;;;2.53;;
10985;SDS011;5546;48.714;8.738;2024-02-15T05:43:19;5.43;;;2.80;;
10985;SDS011;5546;48.714;8.738;2024-02-15T05:45:45;4.80;;;3.47;;
10985;SDS011;5546;48.714;8.738;2024-02-15T05:48:10;6.50;;;3.03;;
10985;SDS011;5546;48.714;8.738;2024-02-15T05:50:37;8.83;;;2.70;;
10985;SDS011;5546;48.714;8.738;2024-02-15T05:53:03;3.73;;;2.60;;
10985;SDS011;5546;48.714;8.738;2024-02-15T05:55:28;3.70;;;2.60;;
10985;SDS011;5546;48.714;8.738;2024-02-15T05:57:56;3.07;;;2.43;;
10985;SDS011;5546;48.714;8.738;2024-02-15T06:00:21;3.80;;;2.60;;
10985;SDS011;5546;48.714;8.738;2024-02-15T06:02:47;8.57;;;2.40;;
10985;SDS011;5546;48.714;8.738;2024-02-15T06:05:14;4.60;;;2.63;;
10985;SDS011;5546;48.714;8.738;2024-02-15T06:07:41;3.60;;;2.40;;
10985;SDS011;5546;48.714;8.738;2024-02-15T06:10:07;6.13;;;2.30;;
10985;SDS011;5546;48.714;8.738;2024-02-15T06:12:33;2.93;;;2.40;;
10985;SDS011;5546;48.714;8.738;2024-02-15T06:14:58;3.77;;;2.60;;
10985;SDS011;5546;48.714;8.738;2024-02-15T06:17:24;5.23;;;2.60;;
10985;SDS011;5546;48.714;8.738;2024-02-15T06:19:49;3.57;;;3.03;;
10985;SDS011;5546;48.714;8.738;2024-02-15T06:22:15;3.17;;;2.60;;
10985;SDS011;5546;48.714;8.738;2024-02-15T06:24:41;8.27;;;2.90;;
10985;SDS011;5546;48.714;8.738;2024-02-15T06:27:06;5.23;;;2.93;;
10985;SDS011;5546;48.714;8.738;2024-02-15T06:29:32;4.00;;;2.70;;
10985;SDS011;5546;48.714;8.738;2024-02-15T06:32:16;5.03;;;2.93;;
10985;SDS011;5546;48.714;8.738;2024-02-15T06:35:00;4.60;;;2.70;;
10985;SDS011;5546;48.714;8.738;2024-02-15T06:37:44;4.77;;;2.97;;
10985;SDS011;5546;48.714;8.738;2024-02-15T06:40:28;4.13;;;2.50;;
10985;SDS011;5546;48.714;8.738;2024-02-15T06:42:54;6.00;;;3.23;;
10985;SDS011;5546;48.714;8.738;2024-02-15T06:45:19;5.80;;;4.33;;
10985;SDS011;5546;48.714;8.738;2024-02-15T06:47:45;7.17;;;4.50;;
10985;SDS011;5546;48.714;8.738;2024-02-15T06:50:11;6.07;;;3.07;;
10985;SDS011;5546;48.714;8.738;2024-02-15T06:52:38;3.63;;;3.10;;
10985;SDS011;5546;48.714;8.738;2024-02-15T06:55:06;3.00;;;2.70;;
10985;SDS011;5546;48.714;8.738;2024-02-15T06:57:33;2.77;;;2.43;;
10985;SDS011;5546;48.714;8.738;2024-02-15T07:00:01;3.50;;;2.97;;
10985;SDS011;5546;48.714;8.738;2024-02-15T07:02:34;5.73;;;3.10;;
10985;SDS011;5546;48.714;8.738;2024-02-15T07:05:00;2.93;;;2.57;;
10985;SDS011;5546;48.714;8.738;2024-02-15T07:07:27;4.53;;;2.57;;
10985;SDS011;5546;48.714;8.738;2024-02-15T07:09:52;3.43;;;3.07;;
10985;SDS011;5546;48.714;8.738;2024-02-15T07:12:19;3.73;;;2.60;;
10985;SDS011;5546;48.714;8.738;2024-02-15T07:14:46;3.00;;;2.70;;
10985;SDS011;5546;48.714;8.738;2024-02-15T07:17:12;5.03;;;2.77;;
10985;SDS011;5546;48.714;8.738;2024-02-15T07:19:40;2.70;;;2.50;;
10985;SDS011;5546;48.714;8.738;2024-02-15T07:22:09;3.77;;;2.60;;
10985;SDS011;5546;48.714;8.738;2024-02-15T07:24:35;7.63;;;3.00;;
10985;SDS011;5546;48.714;8.738;2024-02-15T07:27:03;6.30;;;3.00;;
10985;SDS011;5546;48.714;8.738;2024-02-15T07:29:29;5.10;;;2.87;;
10985;SDS011;5546;48.714;8.738;2024-02-15T07:31:56;3.10;;;2.80;;
10985;SDS011;5546;48.714;8.738;2024-02-15T07:34:22;3.53;;;2.43;;
10985;SDS011;5546;48.714;8.738;2024-02-15T07:36:48;3.33;;;2.50;;
10985;SDS011;5546;48.714;8.738;2024-02-15T07:39:14;6.03;;;2.57;;
10985;SDS011;5546;48.714;8.738;2024-02-15T07:41:48;3.70;;;2.60;;
10985;SDS011;5546;48.714;8.738;2024-02-15T07:44:14;4.13;;;2.90;;
10985;SDS011;5546;48.714;8.738;2024-02-15T07:46:41;4.20;;;2.70;;
10985;SDS011;5546;48.714;8.738;2024-02-15T07:49:06;3.57;;;2.43;;
10985;SDS011;5546;48.714;8.738;2024-02-15T07:51:33;5.07;;;2.57;;
10985;SDS011;5546;48.714;8.738;2024-02-15T07:53:58;5.43;;;2.33;;
10985;SDS011;5546;48.714;8.738;2024-02-15T07:56:26;2.60;;;2.30;;
10985;SDS011;5546;48.714;8.738;2024-02-15T07:58:52;2.93;;;2.10;;
10985;SDS011;5546;48.714;8.738;2024-02-15T08:01:17;2.70;;;2.23;;
10985;SDS011;5546;48.714;8.738;2024-02-15T08:03:46;4.23;;;2.53;;
10985;SDS011;5546;48.714;8.738;2024-02-15T08:06:12;3.50;;;2.30;;
10985;SDS011;5546;48.714;8.738;2024-02-15T08:08:40;2.60;;;2.30;;
10985;SDS011;5546;48.714;8.738;2024-02-15T08:11:15;2.70;;;2.20;;
10985;SDS011;5546;48.714;8.738;2024-02-15T08:13:44;4.13;;;2.40;;
10985;SDS011;5546;48.714;8.738;2024-02-15T08:16:15;2.23;;;2.00;;
10985;SDS011;5546;48.714;8.738;2024-02-15T08:18:44;3.50;;;2.33;;
10985;SDS011;5546;48.714;8.738;2024-02-15T08:21:10;3.23;;;2.30;;
10985;SDS011;5546;48.714;8.738;2024-02-15T08:23:36;3.40;;;2.50;;
10985;SDS011;5546;48.714;8.738;2024-02-15T08:26:01;7.40;;;2.73;;
10985;SDS011;5546;48.714;8.738;2024-02-15T08:28:27;3.37;;;2.40;;
10985;SDS011;5546;48.714;8.738;2024-02-15T08:30:56;2.97;;;2.27;;
10985;SDS011;5546;48.714;8.738;2024-02-15T08:33:22;5.30;;;3.50;;
10985;SDS011;5546;48.714;8.738;2024-02-15T08:35:49;3.43;;;2.30;;
10985;SDS011;5546;48.714;8.738;2024-02-15T08:38:17;4.87;;;2.60;;
10985;SDS011;5546;48.714;8.738;2024-02-15T08:40:49;3.80;;;2.20;;
10985;SDS011;5546;48.714;8.738;2024-02-15T08:43:18;4.77;;;2.50;;
10985;SDS011;5546;48.714;8.738;2024-02-15T08:45:43;2.97;;;2.50;;
10985;SDS011;5546;48.714;8.738;2024-02-15T08:48:10;2.50;;;2.10;;
10985;SDS011;5546;48.714;8.738;2024-02-15T08:50:36;2.93;;;2.40;;
10985;SDS011;5546;48.714;8.738;2024-02-15T08:53:02;5.33;;;2.37;;
10985;SDS011;5546;48.714;8.738;2024-02-15T08:55:33;4.00;;;2.90;;
10985;SDS011;5546;48.714;8.738;2024-02-15T08:58:00;6.07;;;2.87;;
10985;SDS011;5546;48.714;8.738;2024-02-15T09:00:27;3.03;;;2.60;;
10985;SDS011;5546;48.714;8.738;2024-02-15T09:02:53;2.27;;;1.80;;
10985;SDS011;5546;48.714;8.738;2024-02-15T09:05:19;3.97;;;2.23;;
10985;SDS011;5546;48.714;8.738;2024-02-15T09:07:47;2.90;;;2.47;;
10985;SDS011;5546;48.714;8.738;2024-02-15T09:10:13;6.63;;;2.53;;
10985;SDS011;5546;48.714;8.738;2024-02-15T09:12:43;2.90;;;2.33;;
10985;SDS011;5546;48.714;8.738;2024-02-15T09:15:15;5.40;;;2.20;;
10985;SDS011;5546;48.714;8.738;2024-02-15T09:17:41;2.90;;;2.40;;
10985;SDS011;5546;48.714;8.738;2024-02-15T09:20:19;2.23;;;1.90;;
10985;SDS011;5546;48.714;8.738;2024-02-15T09:22:51;3.77;;;2.53;;
10985;SDS011;5546;48.714;8.738;2024-02-15T09:25:17;5.40;;;2.70;;
10985;SDS011;5546;48.714;8.738;2024-02-15T09:27:57;4.20;;;2.33;;
10985;SDS011;5546;48.714;8.738;2024-02-15T09:30:22;5.20;;;2.70;;
10985;SDS011;5546;48.714;8.738;2024-02-15T09:32:49;6.57;;;3.50;;
10985;SDS011;5546;48.714;8.738;2024-02-15T09:35:15;6.73;;;4.53;;
10985;SDS011;5546;48.714;8.738;2024-02-15T09:37:47;4.43;;;3.30;;
10985;SDS011;5546;48.714;8.738;2024-02-15T09:40:14;3.80;;;3.30;;
10985;SDS011;5546;48.714;8.738;2024-02-15T09:42:43;4.83;;;3.40;;
10985;SDS011;5546;48.714;8.738;2024-02-15T09:45:12;3.93;;;2.80;;
10985;SDS011;5546;48.714;8.738;2024-02-15T09:47:39;6.73;;;3.67;;
10985;SDS011;5546;48.714;8.738;2024-02-15T09:50:09;4.37;;;2.77;;
10985;SDS011;5546;48.714;8.738;2024-02-15T09:52:39;4.50;;;2.70;;
10985;SDS011;5546;48.714;8.738;2024-02-15T09:55:11;5.68;;;2.42;;
10985;SDS011;5546;48.714;8.738;2024-02-15T09:57:38;3.83;;;2.40;;
10985;SDS011;5546;48.714;8.738;2024-02-15T10:00:04;6.00;;;2.38;;
10985;SDS011;5546;48.714;8.738;2024-02-15T10:02:32;4.00;;;2.00;;
10985;SDS011;5546;48.714;8.738;2024-02-15T10:05:01;4.68;;;2.10;;
10985;SDS011;5546;48.714;8.738;2024-02-15T10:07:27;19.92;;;3.33;;
10985;SDS011;5546;48.714;8.738;2024-02-15T10:09:53;6.15;;;2.63;;
10985;SDS011;5546;48.714;8.738;2024-02-15T10:12:19;5.03;;;2.20;;
10985;SDS011;5546;48.714;8.738;2024-02-15T10:14:47;3.78;;;2.30;;
10985;SDS011;5546;48.714;8.738;2024-02-15T10:17:15;3.53;;;1.90;;
10985;SDS011;5546;48.714;8.738;2024-02-15T10:19:42;6.32;;;3.05;;
10985;SDS011;5546;48.714;8.738;2024-02-15T10:22:09;7.43;;;2.97;;
10985;SDS011;5546;48.714;8.738;2024-02-15T10:24:36;4.13;;;3.03;;
10985;SDS011;5546;48.714;8.738;2024-02-15T10:27:04;2.80;;;2.50;;
10985;SDS011;5546;48.714;8.738;2024-02-15T10:29:33;4.38;;;2.78;;
10985;SDS011;5546;48.714;8.738;2024-02-15T10:32:00;3.10;;;2.47;;
10985;SDS011;5546;48.714;8.738;2024-02-15T10:34:27;5.18;;;2.95;;
10985;SDS011;5546;48.714;8.738;2024-02-15T10:36:53;3.53;;;2.40;;
10985;SDS011;5546;48.714;8.738;2024-02-15T10:39:22;3.83;;;2.65;;
10985;SDS011;5546;48.714;8.738;2024-02-15T10:44:19;3.95;;;2.40;;
10985;SDS011;5546;48.714;8.738;2024-02-15T10:46:46;2.88;;;2.30;;
10985;SDS011;5546;48.714;8.738;2024-02-15T10:49:23;2.83;;;2.00;;
10985;SDS011;5546;48.714;8.738;2024-02-15T10:51:55;3.75;;;1.92;;
10985;SDS011;5546;48.714;8.738;2024-02-15T10:57:28;3.10;;;2.03;;
10985;SDS011;5546;48.714;8.738;2024-02-15T10:59:57;2.95;;;2.00;;
10985;SDS011;5546;48.714;8.738;2024-02-15T11:02:37;4.63;;;1.90;;
10985;SDS011;5546;48.714;8.738;2024-02-15T11:05:04;5.90;;;2.33;;
10985;SDS011;5546;48.714;8.738;2024-02-15T11:07:34;4.10;;;1.90;;
10985;SDS011;5546;48.714;8.738;2024-02-15T11:10:00;2.55;;;1.70;;
10985;SDS011;5546;48.714;8.738;2024-02-15T11:12:29;5.97;;;1.75;;
10985;SDS011;5546;48.714;8.738;2024-02-15T11:14:56;3.08;;;2.13;;
10985;SDS011;5546;48.714;8.738;2024-02-15T11:20:04;2.60;;;1.77;;
10985;SDS011;5546;48.714;8.738;2024-02-15T11:22:36;3.20;;;2.15;;
10985;SDS011;5546;48.714;8.738;2024-02-15T11:25:05;2.58;;;1.73;;
10985;SDS011;5546;48.714;8.738;2024-02-15T11:27:34;2.33;;;1.60;;
10985;SDS011;5546;48.714;8.738;2024-02-15T11:30:02;2.53;;;1.65;;
10985;SDS011;5546;48.714;8.738;2024-02-15T11:35:14;2.78;;;1.92;;
10985;SDS011;5546;48.714;8.738;2024-02-15T11:43:06;2.42;;;1.73;;
10985;SDS011;5546;48.714;8.738;2024-02-15T11:45:33;2.80;;;1.90;;
10985;SDS011;5546;48.714;8.738;2024-02-15T11:48:04;2.63;;;1.77;;
10985;SDS011;5546;48.714;8.738;2024-02-15T11:50:35;2.78;;;1.90;;
10985;SDS011;5546;48.714;8.738;2024-02-15T11:53:03;7.97;;;1.65;;
10985;SDS011;5546;48.714;8.738;2024-02-15T11:55:36;2.45;;;1.80;;
10985;SDS011;5546;48.714;8.738;2024-02-15T11:58:05;2.72;;;1.88;;
10985;SDS011;5546;48.714;8.738;2024-02-15T12:00:35;4.32;;;2.00;;
10985;SDS011;5546;48.714;8.738;2024-02-15T12:03:20;2.00;;;1.80;;
10985;SDS011;5546;48.714;8.738;2024-02-15T12:06:05;2.40;;;1.80;;
10985;SDS011;5546;48.714;8.738;2024-02-15T12:08:51;2.25;;;1.80;;
10985;SDS011;5546;48.714;8.738;2024-02-15T12:11:36;3.90;;;2.20;;
10985;SDS011;5546;48.714;8.738;2024-02-15T12:14:21;3.78;;;2.00;;
10985;SDS011;5546;48.714;8.738;2024-02-15T12:17:09;3.60;;;1.88;;
10985;SDS011;5546;48.714;8.738;2024-02-15T12:19:55;2.70;;;1.92;;
10985;SDS011;5546;48.714;8.738;2024-02-15T12:22:31;2.45;;;1.73;;
10985;SDS011;5546;48.714;8.738;2024-02-15T12:25:01;3.67;;;1.85;;
10985;SDS011;5546;48.714;8.738;2024-02-15T12:27:31;2.42;;;2.00;;
10985;SDS011;5546;48.714;8.738;2024-02-15T12:29:56;11.60;;;2.20;;
10985;SDS011;5546;48.714;8.738;2024-02-15T12:32:23;3.30;;;1.90;;
10985;SDS011;5546;48.714;8.738;2024-02-15T12:34:50;5.68;;;2.35;;
10985;SDS011;5546;48.714;8.738;2024-02-15T12:37:20;2.65;;;1.92;;
10985;SDS011;5546;48.714;8.738;2024-02-15T12:39:49;2.20;;;1.73;;
10985;SDS011;5546;48.714;8.738;2024-02-15T12:42:18;7.00;;;2.60;;
10985;SDS011;5546;48.714;8.738;2024-02-15T12:44:45;3.63;;;2.10;;
10985;SDS011;5546;48.714;8.738;2024-02-15T12:47:21;2.58;;;1.85;;
10985;SDS011;5546;48.714;8.738;2024-02-15T12:49:48;3.53;;;1.90;;
10985;SDS011;5546;48.714;8.738;2024-02-15T12:52:58;6.30;;;2.00;;
10985;SDS011;5546;48.714;8.738;2024-02-15T12:55:17;2.38;;;1.80;;
10985;SDS011;5546;48.714;8.738;2024-02-15T12:57:51;3.70;;;1.92;;
10985;SDS011;5546;48.714;8.738;2024-02-15T13:00:19;4.28;;;1.80;;
10985;SDS011;5546;48.714;8.738;2024-02-15T13:02:46;2.05;;;1.75;;
10985;SDS011;5546;48.714;8.738;2024-02-15T13:05:14;2.10;;;1.85;;
10985;SDS011;5546;48.714;8.738;2024-02-15T13:07:44;12.00;;;2.22;;
10985;SDS011;5546;48.714;8.738;2024-02-15T13:10:12;5.05;;;2.25;;
10985;SDS011;5546;48.714;8.738;2024-02-15T13:12:39;4.47;;;2.25;;
10985;SDS011;5546;48.714;8.738;2024-02-15T13:15:06;9.98;;;2.47;;
10985;SDS011;5546;48.714;8.738;2024-02-15T13:17:36;6.40;;;1.80;;
10985;SDS011;5546;48.714;8.738;2024-02-15T13:20:02;3.30;;;2.45;;
10985;SDS011;5546;48.714;8.738;2024-02-15T13:22:36;3.10;;;1.70;;
10985;SDS011;5546;48.714;8.738;2024-02-15T13:25:04;4.13;;;1.90;;
10985;SDS011;5546;48.714;8.738;2024-02-15T13:27:32;5.35;;;2.20;;
10985;SDS011;5546;48.714;8.738;2024-02-15T13:29:58;16.42;;;3.05;;
10985;SDS011;5546;48.714;8.738;2024-02-15T13:32:24;4.25;;;2.13;;
10985;SDS011;5546;48.714;8.738;2024-02-15T13:34:50;4.10;;;2.00;;
10985;SDS011;5546;48.714;8.738;2024-02-15T13:37:19;7.30;;;2.25;;
10985;SDS011;5546;48.714;8.738;2024-02-15T13:39:48;2.88;;;1.50;;
10985;SDS011;5546;48.714;8.738;2024-02-15T13:42:14;5.65;;;1.65;;
10985;SDS011;5546;48.714;8.738;2024-02-15T13:44:40;2.95;;;1.80;;
10985;SDS011;5546;48.714;8.738;2024-02-15T13:47:05;27.52;;;2.47;;
10985;SDS011;5546;48.714;8.738;2024-02-15T13:49:31;7.30;;;2.17;;
10985;SDS011;5546;48.714;8.738;2024-02-15T13:52:00;4.40;;;1.83;;
10985;SDS011;5546;48.714;8.738;2024-02-15T13:54:29;3.53;;;1.60;;
10985;SDS011;5546;48.714;8.738;2024-02-15T13:56:55;2.80;;;1.88;;
10985;SDS011;5546;48.714;8.738;2024-02-15T13:59:21;30.63;;;2.90;;
10985;SDS011;5546;48.714;8.738;2024-02-15T14:01:48;7.75;;;2.22;;
10985;SDS011;5546;48.714;8.738;2024-02-15T14:04:14;3.78;;;1.77;;
10985;SDS011;5546;48.714;8.738;2024-02-15T14:06:41;19.25;;;2.30;;
10985;SDS011;5546;48.714;8.738;2024-02-15T14:09:09;7.68;;;2.28;;
10985;SDS011;5546;48.714;8.738;2024-02-15T14:11:38;3.58;;;2.08;;
10985;SDS011;5546;48.714;8.738;2024-02-15T14:14:04;4.00;;;2.10;;
10985;SDS011;5546;48.714;8.738;2024-02-15T14:16:30;2.97;;;2.30;;
10985;SDS011;5546;48.714;8.738;2024-02-15T14:18:56;4.30;;;1.88;;
10985;SDS011;5546;48.714;8.738;2024-02-15T14:21:22;19.70;;;2.85;;
10985;SDS011;5546;48.714;8.738;2024-02-15T14:23:48;4.18;;;2.10;;
10985;SDS011;5546;48.714;8.738;2024-02-15T14:26:14;4.55;;;1.75;;
10985;SDS011;5546;48.714;8.738;2024-02-15T14:28:41;6.75;;;2.25;;
10985;SDS011;5546;48.714;8.738;2024-02-15T14:31:07;3.25;;;2.03;;
10985;SDS011;5546;48.714;8.738;2024-02-15T14:33:54;4.63;;;2.83;;
10985;SDS011;5546;48.714;8.738;2024-02-15T14:36:19;6.80;;;2.90;;
10985;SDS011;5546;48.714;8.738;2024-02-15T14:38:45;36.80;;;4.70;;
10985;SDS011;5546;48.714;8.738;2024-02-15T14:41:11;13.05;;;3.55;;
10985;SDS011;5546;48.714;8.738;2024-02-15T14:43:37;6.65;;;2.10;;
10985;SDS011;5546;48.714;8.738;2024-02-15T14:46:03;5.40;;;2.78;;
10985;SDS011;5546;48.714;8.738;2024-02-15T14:48:30;4.53;;;3.05;;
10985;SDS011;5546;48.714;8.738;2024-02-15T14:50:56;4.25;;;2.25;;
10985;SDS011;5546;48.714;8.738;2024-02-15T14:53:22;3.08;;;1.88;;
10985;SDS011;5546;48.714;8.738;2024-02-15T14:55:48;3.97;;;2.13;;
10985;SDS011;5546;48.714;8.738;2024-02-15T14:58:16;7.53;;;2.22;;
10985;SDS011;5546;48.714;8.738;2024-02-15T15:00:42;4.33;;;2.13;;
10985;SDS011;5546;48.714;8.738;2024-02-15T15:03:09;3.53;;;1.97;;
10985;SDS011;5546;48.714;8.738;2024-02-15T15:05:38;22.53;;;2.97;;
10985;SDS011;5546;48.714;8.738;2024-02-15T15:08:22;3.67;;;2.07;;
10985;SDS011;5546;48.714;8.738;2024-02-15T15:11:06;2.35;;;1.77;;
10985;SDS011;5546;48.714;8.738;2024-02-15T15:13:50;12.03;;;2.23;;
10985;SDS011;5546;48.714;8.738;2024-02-15T15:16:16;3.17;;;2.00;;
10985;SDS011;5546;48.714;8.738;2024-02-15T15:18:45;3.47;;;1.80;;
10985;SDS011;5546;48.714;8.738;2024-02-15T15:21:11;2.87;;;1.70;;
10985;SDS011;5546;48.714;8.738;2024-02-15T15:23:37;7.60;;;1.83;;